createdAt,value
2022-12-13T00:03:49.392Z,99930.16
2022-12-13T00:08:52.280Z,99932.09
2022-12-13T00:13:55.444Z,99926.19
2022-12-13T00:19:00.968Z,99923.22
2022-12-13T00:24:04.046Z,99926.78
2022-12-13T00:29:08.180Z,99919.97
2022-12-13T00:34:12.366Z,99912.91
2022-12-13T00:39:16.468Z,99910.50
2022-12-13T00:44:20.054Z,99912.41
2022-12-13T00:49:24.612Z,99912.34
2022-12-13T00:54:27.360Z,99911.75
2022-12-13T00:59:30.105Z,99903.94
2022-12-13T01:04:34.187Z,99907.50
2022-12-13T01:09:37.369Z,99899.22
2022-12-13T01:14:41.504Z,99896.41
2022-12-13T01:19:45.793Z,99905.34
2022-12-13T01:24:48.648Z,99894.56
2022-12-13T01:29:51.370Z,99881.94
2022-12-13T01:34:55.616Z,99893.91
2022-12-13T01:39:58.390Z,99889.06
2022-12-13T01:45:06.145Z,99893.34
2022-12-13T01:50:13.632Z,99883.50
2022-12-13T01:55:18.208Z,99885.06
2022-12-13T02:00:21.332Z,99871.06
2022-12-13T02:05:29.635Z,99876.81
2022-12-13T02:10:32.869Z,99871.84
2022-12-13T02:15:43.357Z,99874.97
2022-12-13T02:21:08.544Z,99881.31
2022-12-13T02:26:33.194Z,99874.06
2022-12-13T02:31:43.539Z,99868.09
2022-12-13T02:36:55.024Z,99870.75
2022-12-13T02:42:01.637Z,99870.00
2022-12-13T02:47:12.588Z,99866.91
2022-12-13T02:52:22.499Z,99871.16
2022-12-13T02:57:33.031Z,99872.50
2022-12-13T03:02:44.755Z,99880.19
2022-12-13T03:07:54.467Z,99875.38
2022-12-13T03:13:20.292Z,99866.81
2022-12-13T03:18:26.448Z,99881.81
2022-12-13T03:23:29.914Z,99881.50
2022-12-13T03:28:32.652Z,99872.75
2022-12-13T03:33:38.651Z,99875.91
2022-12-13T03:38:41.807Z,99866.94
2022-12-13T03:43:44.773Z,99861.03
2022-12-13T03:48:49.024Z,99860.75
2022-12-13T03:53:51.770Z,99848.72
2022-12-13T03:58:54.481Z,99845.78
2022-12-13T04:03:58.518Z,99852.59
2022-12-13T04:09:01.715Z,99856.13
2022-12-13T04:14:04.534Z,99851.66
2022-12-13T04:19:08.652Z,99850.91
2022-12-13T04:24:11.600Z,99849.72
2022-12-13T04:29:14.514Z,99846.91
2022-12-13T04:34:18.570Z,99849.13
2022-12-13T04:39:21.982Z,99857.44
2022-12-13T04:44:28.957Z,99856.97
2022-12-13T04:49:35.580Z,99852.59
2022-12-13T04:54:38.590Z,99847.69
2022-12-13T04:59:42.846Z,99857.88
2022-12-13T05:04:47.529Z,99855.81
2022-12-13T05:09:57.026Z,99849.25
2022-12-13T05:14:59.767Z,99838.03
2022-12-13T05:20:04.077Z,99826.78
2022-12-13T05:25:08.120Z,99836.75
2022-12-13T05:30:11.966Z,99849.34
2022-12-13T05:35:22.777Z,99854.19
2022-12-13T05:40:27.843Z,99862.00
2022-12-13T05:45:30.833Z,99860.16
2022-12-13T05:50:34.947Z,99857.19
2022-12-13T05:55:38.351Z,99850.91
2022-12-13T06:00:41.059Z,99853.94
2022-12-13T06:05:45.172Z,99861.22
2022-12-13T06:10:55.390Z,99851.06
2022-12-13T06:16:22.952Z,99854.94
2022-12-13T06:21:29.027Z,99845.16
2022-12-13T06:26:34.820Z,99854.38
2022-12-13T06:31:37.703Z,99870.69
2022-12-13T06:36:41.766Z,99875.56
2022-12-13T06:41:44.500Z,99886.16
2022-12-13T06:46:47.203Z,99888.09
2022-12-13T06:51:51.554Z,99901.84
2022-12-13T06:56:54.255Z,99898.00
2022-12-13T07:02:03.221Z,99896.97
2022-12-13T07:07:08.109Z,99901.06
2022-12-13T07:12:11.364Z,99898.09
2022-12-13T07:17:32.731Z,99896.41
2022-12-13T07:22:46.646Z,99890.78
2022-12-13T07:28:01.085Z,99897.34
2022-12-13T07:33:05.340Z,99894.88
2022-12-13T07:38:11.037Z,99898.66
2022-12-13T07:43:15.911Z,99906.81
2022-12-13T07:48:19.193Z,99914.41
2022-12-13T07:53:23.352Z,99912.84
2022-12-13T07:58:26.085Z,99919.31
2022-12-13T08:03:29.697Z,99922.63
2022-12-13T08:08:34.333Z,99930.97
2022-12-13T08:13:37.571Z,99924.13
2022-12-13T08:18:40.786Z,99924.50
2022-12-13T08:23:44.921Z,99929.81
2022-12-13T08:28:47.696Z,99927.59
2022-12-13T08:33:50.463Z,99934.81
2022-12-13T08:38:56.074Z,99928.88
2022-12-13T08:43:58.865Z,99925.72
2022-12-13T08:49:01.667Z,99924.53
2022-12-13T08:54:11.204Z,99920.03
2022-12-13T08:59:15.819Z,99910.44
2022-12-13T09:04:18.994Z,99904.16
2022-12-13T09:09:37.200Z,99911.19
2022-12-13T09:14:45.428Z,99912.84
2022-12-13T09:19:49.345Z,99904.53
2022-12-13T09:24:53.697Z,99895.78
2022-12-13T09:30:07.748Z,99893.38
2022-12-13T09:35:10.734Z,99893.28
2022-12-13T09:40:26.357Z,99901.88
2022-12-13T09:45:32.053Z,99890.00
2022-12-13T09:50:37.035Z,99886.59
2022-12-13T09:55:45.887Z,99876.00
2022-12-13T10:00:50.705Z,99889.63
2022-12-13T10:05:59.940Z,99881.00
2022-12-13T10:11:04.358Z,99874.13
2022-12-13T10:16:10.780Z,99877.56
2022-12-13T10:21:16.487Z,99868.34
2022-12-13T10:26:24.139Z,99881.88
2022-12-13T10:31:27.611Z,99862.25
2022-12-13T10:36:32.625Z,99872.22
2022-12-13T10:41:38.358Z,99872.34
2022-12-13T10:46:42.392Z,99864.19
2022-12-13T10:51:45.740Z,99865.56
2022-12-13T10:56:51.439Z,99863.69
2022-12-13T11:01:54.903Z,99859.19
2022-12-13T11:06:58.891Z,99869.22
2022-12-13T11:12:04.906Z,99861.75
2022-12-13T11:17:09.925Z,99859.28
2022-12-13T11:22:21.333Z,99852.47
2022-12-13T11:27:46.310Z,99848.69
2022-12-13T11:33:11.742Z,99850.22
2022-12-13T11:38:26.562Z,99856.25
2022-12-13T11:43:34.551Z,99853.50
2022-12-13T11:48:44.406Z,99841.31
2022-12-13T11:53:54.861Z,99839.84
2022-12-13T11:59:09.528Z,99829.16
2022-12-13T12:04:20.371Z,99828.41
2022-12-13T12:09:25.326Z,99820.50
2022-12-13T12:14:36.872Z,99831.00
2022-12-13T12:19:41.535Z,99825.75
2022-12-13T12:24:54.742Z,99820.00
2022-12-13T12:30:22.955Z,99818.88
2022-12-13T12:35:51.902Z,99818.38
2022-12-13T12:41:17.319Z,99808.91
2022-12-13T12:46:58.905Z,99801.59
2022-12-13T12:52:05.585Z,99806.38
2022-12-13T12:57:26.718Z,99803.38
2022-12-13T13:02:34.954Z,99803.69
2022-12-13T13:07:40.372Z,99809.75
2022-12-13T13:12:44.588Z,99809.28
2022-12-13T13:17:48.776Z,99814.94
2022-12-13T13:23:10.368Z,99806.13
2022-12-13T13:28:17.218Z,99803.53
2022-12-13T13:33:46.570Z,99798.25
2022-12-13T13:38:51.505Z,99806.63
2022-12-13T13:43:54.573Z,99810.56
2022-12-13T13:49:00.837Z,99814.44
2022-12-13T13:54:29.370Z,99812.31
2022-12-13T14:00:07.844Z,99821.34
2022-12-13T14:05:32.720Z,99827.97
2022-12-13T14:10:56.766Z,99820.78
2022-12-13T14:16:30.268Z,99822.75
2022-12-13T14:21:41.079Z,99823.00
2022-12-13T14:27:08.104Z,99820.88
2022-12-13T14:32:26.745Z,99816.38
2022-12-13T14:37:32.889Z,99808.25
2022-12-13T14:42:35.860Z,99807.47
2022-12-13T14:47:41.183Z,99810.34
2022-12-13T14:52:45.612Z,99795.69
2022-12-13T14:57:54.021Z,99793.81
2022-12-13T15:02:59.815Z,99799.31
2022-12-13T15:08:11.498Z,99789.44
2022-12-13T15:13:25.287Z,99793.69
2022-12-13T15:18:33.101Z,99800.25
2022-12-13T15:23:49.117Z,99803.63
2022-12-13T15:28:58.831Z,99798.75
2022-12-13T15:34:28.315Z,99805.56
2022-12-13T15:39:38.971Z,99816.25
2022-12-13T15:44:48.070Z,99803.97
2022-12-13T15:49:52.716Z,99810.13
2022-12-13T15:54:59.257Z,99820.13
2022-12-13T16:00:29.691Z,99813.56
2022-12-13T16:05:36.840Z,99803.28
2022-12-13T16:10:41.084Z,99796.78
2022-12-13T16:15:50.029Z,99801.00
2022-12-13T16:20:52.815Z,99787.72
2022-12-13T16:25:57.034Z,99784.50
2022-12-13T16:31:06.061Z,99775.22
2022-12-13T16:36:10.122Z,99769.88
2022-12-13T16:41:15.723Z,99779.00
2022-12-13T16:47:13.038Z,99781.81
2022-12-13T16:51:46.482Z,99772.25
2022-12-13T16:56:53.768Z,99757.09
2022-12-13T17:01:56.703Z,99763.28
2022-12-13T17:06:59.525Z,99759.16
2022-12-13T17:12:03.719Z,99756.28
2022-12-13T17:17:06.906Z,99754.16
2022-12-13T17:22:10.277Z,99761.28
2022-12-13T17:27:15.763Z,99763.75
2022-12-13T17:32:18.730Z,99768.75
2022-12-13T17:37:21.507Z,99763.63
2022-12-13T17:42:25.814Z,99760.97
2022-12-13T17:47:29.715Z,99767.47
2022-12-13T17:52:32.625Z,99773.50
2022-12-13T17:57:37.232Z,99772.59
2022-12-13T18:02:40.520Z,99775.00
2022-12-13T18:07:43.512Z,99772.16
2022-12-13T18:12:54.759Z,99762.09
2022-12-13T18:18:13.736Z,99768.19
2022-12-13T18:23:16.615Z,99754.25
2022-12-13T18:28:20.844Z,99748.88
2022-12-13T18:33:23.950Z,99743.47
2022-12-13T18:38:32.940Z,99740.06
2022-12-13T18:43:40.322Z,99736.91
2022-12-13T18:48:43.346Z,99725.94
2022-12-13T18:53:47.094Z,99725.53
2022-12-13T18:58:52.365Z,99736.31
2022-12-13T19:03:55.505Z,99736.53
2022-12-13T19:08:59.237Z,99743.41
2022-12-13T19:14:03.282Z,99752.09
2022-12-13T19:19:06.883Z,99750.44
2022-12-13T19:24:13.867Z,99745.72
2022-12-13T19:29:18.747Z,99728.78
2022-12-13T19:34:21.624Z,99728.88
2022-12-13T19:39:25.036Z,99727.63
2022-12-13T19:44:29.916Z,99711.16
2022-12-13T19:49:32.646Z,99705.22
2022-12-13T19:54:35.403Z,99697.41
2022-12-13T19:59:39.467Z,99699.53
2022-12-13T20:04:44.499Z,99706.53
2022-12-13T20:09:47.274Z,99707.22
2022-12-13T20:14:51.415Z,99702.44
2022-12-13T20:19:54.275Z,99715.03
2022-12-13T20:24:57.191Z,99702.78
2022-12-13T20:30:01.364Z,99702.13
2022-12-13T20:35:04.282Z,99695.69
2022-12-13T20:40:07.803Z,99697.59
2022-12-13T20:45:12.719Z,99689.44
2022-12-13T20:50:15.664Z,99675.34
2022-12-13T20:55:21.132Z,99677.00
2022-12-13T21:00:44.673Z,99668.28
2022-12-13T21:05:47.567Z,99663.59
2022-12-13T21:10:50.285Z,99671.88
2022-12-13T21:15:54.398Z,99663.84
2022-12-13T21:20:57.189Z,99641.91
2022-12-13T21:25:59.948Z,99636.94
2022-12-13T21:31:06.759Z,99638.53
2022-12-13T21:36:11.695Z,99630.91
2022-12-13T21:41:15.033Z,99628.31
2022-12-13T21:46:20.222Z,99618.63
2022-12-13T21:51:24.305Z,99632.34
2022-12-13T21:56:47.115Z,99630.56
2022-12-13T22:02:10.657Z,99609.66
2022-12-13T22:07:15.148Z,99620.09
2022-12-13T22:12:20.597Z,99620.75
2022-12-13T22:17:33.012Z,99620.09
2022-12-13T22:22:39.656Z,99615.22
2022-12-13T22:27:42.399Z,99607.75
2022-12-13T22:32:46.604Z,99609.78
2022-12-13T22:37:49.992Z,99584.63
2022-12-13T22:42:52.726Z,99573.25
2022-12-13T22:47:56.923Z,99569.03
2022-12-13T22:52:59.611Z,99565.72
2022-12-13T22:58:02.316Z,99570.44
2022-12-13T23:03:06.690Z,99570.69
2022-12-13T23:08:09.467Z,99568.91
2022-12-13T23:13:14.057Z,99556.44
2022-12-13T23:18:18.133Z,99540.66
2022-12-13T23:23:21.095Z,99538.63
2022-12-13T23:28:24.025Z,99538.41
2022-12-13T23:33:28.357Z,99528.66
2022-12-13T23:38:31.102Z,99530.09
2022-12-13T23:43:34.177Z,99526.09
2022-12-13T23:48:39.524Z,99522.16
2022-12-13T23:53:42.742Z,99528.63
2022-12-13T23:58:47.192Z,99524.66
